Latest Coastal Weather Observations for McCluer Island

IDD60701

Issued at 5:35 am CST Saturday 1 November 2014 (issued every 10 minutes, with the page automatically refreshed every 10 minutes)

About coastal observations | Map of coastal stations | Coastal observations for NT | Marine services | Other Formats
Station Details ID: 014274 Name: MCCLUER ISLAND Lat: -11.05 Lon: 132.98 Height: 1.4 m
Data from the previous 72 hours. | See also: Recent months at McCluer Island
Date/Time
CST
Temp

°C
Wind Pressure Rain
since 9am
mm
Weather Cloud Vis
km
Sea
Height
m
Swell
Dir
 
Speed
knots
Gust
knots
hPa Trend Height
m
Period
s
Dir
01/05:30am 26.3 NNE 6 8 1010.0 - 0.0 - - - - - - -
01/05:00am 26.3 NNE 7 8 1009.5 - 0.0 - - - - - - -
01/04:30am 26.5 NNE 7 8 1009.0 - 0.0 - - - - - - -
01/04:00am 26.4 N 6 8 1008.6 - 0.0 - - - - - - -
01/03:30am 26.4 N 6 8 1008.4 - 0.0 - - - - - - -
01/03:00am 26.4 N 5 7 1008.3 - 0.0 - - - - - - -
01/02:30am 26.5 N 6 8 1008.2 - 0.0 - - - - - - -
01/02:00am 26.4 N 7 8 1008.4 - 0.0 - - - - - - -
01/01:30am 26.3 NNW 8 9 1008.7 - 0.0 - - - - - - -
01/01:00am 26.6 N 8 10 1008.8 - 0.0 - - - - - - -
01/12:30am 26.7 N 8 9 1009.1 - 0.0 - - - - - - -
01/12:00am 26.7 N 7 8 1009.5 - 0.0 - - - - - - -
 
Date/Time
CST
Temp

°C
Wind Pressure Rain
since 9am
mm
Weather Cloud Vis
km
Sea
Height
m
Swell
Dir
 
Speed
knots
Gust
knots
hPa Trend Height
m
Period
s
Dir
31/11:30pm 26.6 N 6 7 1009.7 - 0.0 - - - - - - -
31/11:00pm 26.8 N 6 7 1010.0 - 0.0 - - - - - - -
31/10:30pm 26.6 NNW 4 6 1010.1 - 0.0 - - - - - - -
31/10:00pm 26.7 NNW 5 7 1010.2 - 0.0 - - - - - - -
31/09:30pm 27.0 NNW 6 7 1009.9 - 0.0 - - - - - - -
31/09:00pm 26.9 NNW 6 7 1009.7 - 0.0 - - - - - - -
31/08:30pm 26.9 NNW 6 7 1009.3 - 0.0 - - - - - - -
31/08:00pm 27.0 NW 7 8 1009.0 - 0.0 - - - - - - -
31/07:30pm 27.0 NNW 6 7 1008.8 - 0.0 - - - - - - -
31/07:00pm 27.1 NNW 6 8 1008.6 - 0.0 - - - - - - -
31/06:30pm 27.4 N 7 8 1008.5 - 0.0 - - - - - - -
31/06:00pm 27.7 N 6 7 1008.2 - 0.0 - - - - - - -
31/05:30pm 28.4 N 5 6 1008.0 - 0.0 - - - - - - -
31/05:00pm 29.0 N 6 8 1008.1 - 0.0 - - - - - - -
31/04:30pm 29.0 N 6 7 1008.1 - 0.0 - - - - - - -
31/04:00pm 29.7 N 5 7 1008.1 - 0.0 - - - - - - -
31/03:30pm 29.7 N 6 8 1008.3 - 0.0 - - - - - - -
31/03:00pm 29.4 N 5 7 1008.4 - 0.0 - - - - - - -
31/02:30pm 29.8 NNW 6 7 1008.8 - 0.0 - - - - - - -
31/02:00pm 30.2 NNW 6 8 1009.1 - 0.0 - - - - - - -
31/01:30pm 30.1 NW 7 9 1009.5 - 0.0 - - - - - - -
31/01:00pm 30.4 NW 5 7 1010.0 - 0.0 - - - - - - -
31/12:30pm 29.4 NNW 7 9 1010.4 - 0.0 - - - - - - -
31/12:00pm 29.3 N 7 9 1010.9 - 0.0 - - - - - - -
31/11:30am 29.4 NNW 7 9 1011.2 - 0.0 - - - - - - -
31/11:00am 29.6 N 6 7 1011.5 - 0.0 - - - - - - -
31/10:30am 28.6 N 6 9 1011.7 - 0.0 - - - - - - -
31/10:00am 29.1 N 7 8 1012.0 - 0.0 - - - - - - -
31/09:30am 28.2 N 6 7 1011.9 - 0.0 - - - - - - -
31/09:00am 27.5 N 7 8 1011.9 - 0.0 - - - - - - -
31/08:30am 27.4 N 8 9 1011.8 - 0.0 - - - - - - -
31/08:00am 27.0 NNE 7 9 1011.5 - 0.0 - - - - - - -
31/07:30am 26.7 NNE 8 10 1011.1 - 0.0 - - - - - - -
31/07:00am 26.6 NE 6 8 1010.6 - 0.0 - - - - - - -
31/06:30am 26.4 NE 7 9 1010.2 - 0.0 - - - - - - -
31/06:00am 26.3 NNE 6 8 1009.8 - 0.0 - - - - - - -
31/05:30am 26.3 NNE 7 9 1009.6 - 0.0 - - - - - - -
31/05:00am 26.3 NNE 6 8 1009.3 - 0.0 - - - - - - -
31/04:30am 26.2 NNE 6 8 1009.1 - 0.0 - - - - - - -
31/04:00am 26.5 NNE 8 11 1008.7 - 0.0 - - - - - - -
31/03:30am 26.5 NNE 9 11 1008.5 - 0.0 - - - - - - -
31/03:00am 26.4 NNE 9 11 1008.3 - 0.0 - - - - - - -
31/02:30am 26.5 NNE 8 9 1008.4 - 0.0 - - - - - - -
31/02:00am 26.5 NE 6 8 1008.7 - 0.0 - - - - - - -
31/01:30am 26.6 NNE 7 9 1008.8 - 0.0 - - - - - - -
31/01:00am 26.5 NNE 7 9 1008.9 - 0.0 - - - - - - -
31/12:30am 26.7 N 8 9 1009.0 - 0.0 - - - - - - -
31/12:00am 26.7 N 8 10 1009.2 - 0.0 - - - - - - -
 
Date/Time
CST
Temp

°C
Wind Pressure Rain
since 9am
mm
Weather Cloud Vis
km
Sea
Height
m
Swell
Dir
 
Speed
knots
Gust
knots
hPa Trend Height
m
Period
s
Dir
30/11:30pm 26.7 N 8 9 1009.4 - 0.0 - - - - - - -
30/11:00pm 26.6 N 6 8 1009.6 - 0.0 - - - - - - -
30/10:30pm 26.8 N 6 8 1009.7 - 0.0 - - - - - - -
30/10:00pm 26.7 N 8 10 1009.5 - 0.0 - - - - - - -
30/09:30pm 26.7 N 9 10 1009.1 - 0.0 - - - - - - -
30/09:00pm 26.6 N 9 11 1009.0 - 0.0 - - - - - - -
30/08:30pm 27.0 N 8 9 1008.9 - 0.0 - - - - - - -
30/08:00pm 26.7 N 4 5 1009.0 - 0.0 - - - - - - -
30/07:30pm 26.7 NNE 3 4 1009.0 - 0.0 - - - - - - -
30/07:00pm 26.8 CALM 0 0 1008.9 - 0.0 - - - - - - -
30/06:30pm 27.3 W 2 4 1008.8 - 0.0 - - - - - - -
30/06:00pm 28.1 NNW 2 5 1008.6 - 0.0 - - - - - - -
30/05:30pm 28.0 N 4 6 1008.6 - 0.0 - - - - - - -
30/05:00pm 28.1 N 4 6 1008.6 - 0.0 - - - - - - -
30/04:30pm 28.8 ENE 2 4 1008.5 - 0.0 - - - - - - -
30/04:00pm 28.8 NNW 5 6 1008.5 - 0.0 - - - - - - -
30/03:30pm 28.6 N 6 8 1008.7 - 0.0 - - - - - - -
30/03:00pm 30.2 NNW 6 8 1008.8 - 0.0 - - - - - - -
30/02:30pm 29.5 N 6 8 1009.0 - 0.0 - - - - - - -
30/02:00pm 29.3 N 6 8 1009.2 - 0.0 - - - - - - -
30/01:30pm 29.1 N 5 7 1009.7 - 0.0 - - - - - - -
30/01:00pm 29.5 N 5 6 1010.3 - 0.0 - - - - - - -
30/12:30pm 29.0 N 6 8 1010.7 - 0.0 - - - - - - -
30/12:00pm 29.2 N 7 8 1010.8 - 0.0 - - - - - - -
30/11:30am 28.7 N 7 9 1011.2 - 0.0 - - - - - - -
30/11:00am 28.6 NNE 7 8 1011.5 - 0.0 - - - - - - -
30/10:30am 28.3 N 7 9 1011.9 - 0.0 - - - - - - -
30/10:00am 27.6 N 6 9 1012.2 - 0.0 - - - - - - -
30/09:30am 27.6 N 8 10 1012.3 - 0.0 - - - - - - -
30/09:00am 27.9 N 7 9 1012.3 - 0.0 - - - - - - -
30/08:30am 27.5 N 7 10 1011.9 - 0.0 - - - - - - -
30/08:00am 27.1 N 7 8 1011.8 - 0.0 - - - - - - -
30/07:30am 26.8 N 6 8 1011.4 - 0.0 - - - - - - -
30/07:00am 26.5 NE 5 7 1011.2 - 0.0 - - - - - - -
30/06:30am 26.1 NE 5 6 1010.8 - 0.0 - - - - - - -
30/06:00am 26.3 NNE 5 6 1010.6 - 0.0 - - - - - - -
30/05:30am 26.2 NE 6 7 1010.3 - 0.0 - - - - - - -
30/05:00am 26.1 NE 7 8 1009.9 - 0.0 - - - - - - -
30/04:30am 26.2 NE 6 7 1009.7 - 0.0 - - - - - - -
30/04:00am 26.1 NE 5 6 1009.6 - 0.0 - - - - - - -
30/03:30am 26.3 NNE 6 7 1009.6 - 0.0 - - - - - - -
30/03:00am 26.3 NNE 4 6 1009.7 - 0.0 - - - - - - -
30/02:30am 26.3 NNE 4 6 1009.9 - 0.0 - - - - - - -
30/02:00am 26.2 N 7 10 1010.0 - 0.0 - - - - - - -
30/01:30am 26.5 NNE 8 9 1010.1 - 0.0 - - - - - - -
30/01:00am 26.4 NNE 8 10 1010.3 - 0.0 - - - - - - -
30/12:30am 26.4 NNE 9 11 1010.7 - 0.0 - - - - - - -
30/12:00am 26.7 NNE 10 11 1010.9 - 0.0 - - - - - - -
 
Date/Time
CST
Temp

°C
Wind Pressure Rain
since 9am
mm
Weather Cloud Vis
km
Sea
Height
m
Swell
Dir
 
Speed
knots
Gust
knots
hPa Trend Height
m
Period
s
Dir
29/11:30pm 26.7 N 11 14 1011.0 - 0.0 - - - - - - -
29/11:00pm 26.8 NNE 12 14 1011.0 - 0.0 - - - - - - -
29/10:30pm 27.2 N 12 15 1011.1 - 0.0 - - - - - - -
29/10:00pm 27.1 N 13 15 1010.9 - 0.0 - - - - - - -
29/09:30pm 27.1 N 14 16 1010.7 - 0.0 - - - - - - -
29/09:00pm 27.6 NNE 14 16 1010.5 - 0.0 - - - - - - -
29/08:30pm 27.2 N 13 16 1010.4 - 0.0 - - - - - - -
29/08:00pm 27.5 N 14 16 1010.3 - 0.0 - - - - - - -
29/07:30pm 27.4 NNE 13 15 1010.1 - 0.0 - - - - - - -
29/07:00pm 27.3 NNE 13 15 1010.0 - 0.0 - - - - - - -
29/06:30pm 27.3 NE 12 14 1009.8 - 0.0 - - - - - - -
29/06:00pm 27.6 NE 11 13 1009.7 - 0.0 - - - - - - -
29/05:30pm 27.7 NE 11 13 1009.6 - 0.0 - - - - - - -
29/05:00pm 28.0 NE 9 13 1009.6 - 0.0 - - - - - - -
29/04:30pm 28.2 NE 10 13 1009.6 - 0.0 - - - - - - -
29/04:00pm 28.1 NE 10 12 1009.6 - 0.0 - - - - - - -
29/03:30pm 28.2 NE 9 12 1009.6 - 0.0 - - - - - - -
29/03:00pm 28.5 NE 9 11 1009.7 - 0.0 - - - - - - -
29/02:30pm 28.7 ENE 7 9 1009.9 - 0.0 - - - - - - -
29/02:00pm 28.5 ENE 9 11 1010.2 - 0.0 - - - - - - -
29/01:30pm 29.0 E 7 9 1010.7 - 0.0 - - - - - - -
29/01:00pm 28.7 ENE 7 8 1011.1 - 0.0 - - - - - - -
29/12:30pm 28.8 ENE 7 9 1011.6 - 0.0 - - - - - - -
29/12:00pm 28.1 ENE 7 9 1012.1 - 0.0 - - - - - - -
29/11:30am 28.2 ENE 8 10 1012.3 - 0.0 - - - - - - -
29/11:00am 27.7 ENE 9 11 1012.5 - 0.0 - - - - - - -
29/10:30am 27.1 NE 10 11 1012.7 - 0.0 - - - - - - -
29/10:00am 27.6 ENE 10 12 1013.1 - 0.0 - - - - - - -
29/09:30am 27.4 ENE 10 12 1013.2 - 0.0 - - - - - - -
29/09:00am 27.4 ENE 9 11 1013.0 - 0.0 - - - - - - -
29/08:30am 27.0 ENE 10 12 1012.7 - 0.0 - - - - - - -
29/08:00am 26.7 ENE 10 12 1012.5 - 0.0 - - - - - - -
29/07:30am 26.7 ENE 11 13 1012.2 - 0.0 - - - - - - -
29/07:00am 26.6 ENE 10 13 1011.8 - 0.0 - - - - - - -
29/06:30am 26.4 E 10 13 1011.4 - 0.0 - - - - - - -
29/06:00am 26.4 ENE 10 13 1011.3 - 0.0 - - - - - - -

Other Formats:

Comma delimited format used in spreadsheet applications
http://www.bom.gov.au/fwo/IDD60701/IDD60701.94135.axf

JavaScript Object Notation format (JSON) in row-major order
http://www.bom.gov.au/fwo/IDD60701/IDD60701.94135.json